createdAt,value
2023-05-15T00:00:56.880Z,15.46
2023-05-15T00:03:25.520Z,15.42
2023-05-15T00:05:52.429Z,15.42
2023-05-15T00:08:19.870Z,15.44
2023-05-15T00:10:59.761Z,15.40
2023-05-15T00:13:27.579Z,15.43
2023-05-15T00:15:54.348Z,15.39
2023-05-15T00:18:21.380Z,15.31
2023-05-15T00:20:48.150Z,15.20
2023-05-15T00:23:15.562Z,15.07
2023-05-15T00:25:42.394Z,15.11
2023-05-15T00:28:09.352Z,15.19
2023-05-15T00:30:36.629Z,15.30
2023-05-15T00:33:03.664Z,15.40
2023-05-15T00:35:32.002Z,15.53
2023-05-15T00:37:58.868Z,15.36
2023-05-15T00:40:25.702Z,15.08
2023-05-15T00:42:52.966Z,15.12
2023-05-15T00:45:20.112Z,14.94
2023-05-15T00:47:47.826Z,14.99
2023-05-15T00:50:14.926Z,15.07
2023-05-15T00:52:41.947Z,15.04
2023-05-15T00:55:10.250Z,15.04
2023-05-15T00:57:37.191Z,15.13
2023-05-15T01:00:09.625Z,15.09
2023-05-15T01:02:37.999Z,15.20
2023-05-15T01:05:07.509Z,15.26
2023-05-15T01:07:45.389Z,15.31
2023-05-15T01:10:12.393Z,15.29
2023-05-15T01:12:39.860Z,15.20
2023-05-15T01:15:09.233Z,15.22
2023-05-15T01:17:36.186Z,15.07
2023-05-15T01:20:05.819Z,15.02
2023-05-15T01:22:53.463Z,15.39
2023-05-15T01:25:43.971Z,15.49
2023-05-15T01:28:12.035Z,15.61
2023-05-15T01:30:40.888Z,15.59
2023-05-15T01:33:17.770Z,15.47
2023-05-15T01:35:51.928Z,14.96
2023-05-15T01:38:38.389Z,14.95
2023-05-15T01:41:15.304Z,14.95
2023-05-15T01:43:43.985Z,15.07
2023-05-15T01:46:15.413Z,15.09
2023-05-15T01:48:43.855Z,15.13
2023-05-15T01:51:11.587Z,14.93
2023-05-15T01:53:38.411Z,11.71
2023-05-15T01:56:07.504Z,10.49
2023-05-15T01:58:37.078Z,10.53
2023-05-15T02:01:07.651Z,10.92
2023-05-15T02:03:35.248Z,12.23
2023-05-15T02:06:02.871Z,12.59
2023-05-15T02:08:31.510Z,12.79
2023-05-15T02:11:00.048Z,13.08
2023-05-15T02:13:27.140Z,13.29
2023-05-15T02:15:54.469Z,13.04
2023-05-15T02:18:21.639Z,13.14
2023-05-15T02:20:48.492Z,13.21
2023-05-15T02:23:15.499Z,13.39
2023-05-15T02:25:54.545Z,13.43
2023-05-15T02:28:36.552Z,13.41
2023-05-15T02:31:12.312Z,13.40
2023-05-15T02:33:49.009Z,13.37
2023-05-15T02:36:22.025Z,13.17
2023-05-15T02:38:53.218Z,13.32
2023-05-15T02:41:20.872Z,13.42
2023-05-15T02:43:48.533Z,13.45
2023-05-15T02:46:17.136Z,13.50
2023-05-15T02:48:44.177Z,13.57
2023-05-15T02:51:13.039Z,13.61
2023-05-15T02:53:40.712Z,10.09
2023-05-15T02:56:08.124Z,9.60
2023-05-15T02:58:36.016Z,9.52
2023-05-15T03:01:03.848Z,10.13
2023-05-15T03:03:30.698Z,12.76
2023-05-15T03:05:57.685Z,13.42
2023-05-15T03:08:24.940Z,13.94
2023-05-15T03:10:52.452Z,14.38
2023-05-15T03:13:19.541Z,14.91
2023-05-15T03:15:46.389Z,14.87
2023-05-15T03:18:13.671Z,15.29
2023-05-15T03:20:41.679Z,15.60
2023-05-15T03:23:08.477Z,15.90
2023-05-15T03:25:35.430Z,16.17
2023-05-15T03:28:02.213Z,16.41
2023-05-15T03:30:29.633Z,16.66
2023-05-15T03:32:57.415Z,16.67
2023-05-15T03:35:25.673Z,16.87
2023-05-15T03:37:52.678Z,17.03
2023-05-15T03:40:19.501Z,17.34
2023-05-15T03:42:46.490Z,17.49
2023-05-15T03:45:13.462Z,17.48
2023-05-15T03:47:42.282Z,17.79
2023-05-15T03:50:09.963Z,18.28
2023-05-15T03:52:36.898Z,18.51
2023-05-15T03:55:06.766Z,15.06
2023-05-15T03:57:35.096Z,14.49
2023-05-15T04:00:06.844Z,14.54
2023-05-15T04:02:40.471Z,15.38
2023-05-15T04:05:08.285Z,17.89
2023-05-15T04:07:35.978Z,18.80
2023-05-15T04:10:03.497Z,19.33
2023-05-15T04:12:33.383Z,19.52
2023-05-15T04:15:19.132Z,19.91
2023-05-15T04:17:48.931Z,19.99
2023-05-15T04:20:17.502Z,20.09
2023-05-15T04:22:44.477Z,18.99
2023-05-15T04:25:13.056Z,18.53
2023-05-15T04:27:42.154Z,18.54
2023-05-15T04:30:09.460Z,18.44
2023-05-15T04:32:37.544Z,18.82
2023-05-15T04:35:05.201Z,18.82
2023-05-15T04:37:32.177Z,18.38
2023-05-15T04:39:59.169Z,18.85
2023-05-15T04:42:26.253Z,19.09
2023-05-15T04:44:53.667Z,19.38
2023-05-15T04:47:20.608Z,19.35
2023-05-15T04:49:49.456Z,19.51
2023-05-15T04:52:16.925Z,20.69
2023-05-15T04:54:43.961Z,23.09
2023-05-15T04:57:10.806Z,23.80
2023-05-15T04:59:37.916Z,23.82
2023-05-15T05:02:04.726Z,21.35
2023-05-15T05:04:33.483Z,21.32
2023-05-15T05:07:00.740Z,21.41
2023-05-15T05:09:28.362Z,21.63
2023-05-15T05:11:55.040Z,23.77
2023-05-15T05:14:22.511Z,24.34
2023-05-15T05:16:49.626Z,24.76
2023-05-15T05:19:17.574Z,24.68
2023-05-15T05:21:44.454Z,25.07
2023-05-15T05:24:11.272Z,25.11
2023-05-15T05:26:38.340Z,25.31
2023-05-15T05:29:05.181Z,25.56
2023-05-15T05:31:32.773Z,23.78
2023-05-15T05:33:59.466Z,23.48
2023-05-15T05:36:26.199Z,23.34
2023-05-15T05:38:53.250Z,23.43
2023-05-15T05:41:21.246Z,23.64
2023-05-15T05:43:48.067Z,23.80
2023-05-15T05:46:14.896Z,23.57
2023-05-15T05:48:42.019Z,23.68
2023-05-15T05:51:08.797Z,23.82
2023-05-15T05:53:37.522Z,24.74
2023-05-15T05:56:05.373Z,25.88
2023-05-15T05:58:32.506Z,25.36
2023-05-15T06:01:00.206Z,24.92
2023-05-15T06:03:28.514Z,25.10
2023-05-15T06:05:55.338Z,25.32
2023-05-15T06:08:22.432Z,25.49
2023-05-15T06:10:49.267Z,25.33
2023-05-15T06:13:16.044Z,24.99
2023-05-15T06:15:42.902Z,24.71
2023-05-15T06:18:09.704Z,24.56
2023-05-15T06:20:37.728Z,24.88
2023-05-15T06:23:04.905Z,25.18
2023-05-15T06:25:32.229Z,25.75
2023-05-15T06:27:59.169Z,26.05
2023-05-15T06:30:26.416Z,26.06
2023-05-15T06:32:53.882Z,26.05
2023-05-15T06:35:23.515Z,26.24
2023-05-15T06:37:51.751Z,26.18
2023-05-15T06:40:18.514Z,26.10
2023-05-15T06:42:46.506Z,26.16
2023-05-15T06:45:13.335Z,26.30
2023-05-15T06:47:40.565Z,26.72
2023-05-15T06:50:07.710Z,26.59
2023-05-15T06:52:34.519Z,26.64
2023-05-15T06:55:01.501Z,26.45
2023-05-15T06:57:28.612Z,26.51
2023-05-15T06:59:55.398Z,26.66
2023-05-15T07:02:22.229Z,26.79
2023-05-15T07:04:51.532Z,27.30
2023-05-15T07:07:18.351Z,27.13
2023-05-15T07:09:47.782Z,27.02
2023-05-15T07:12:15.033Z,26.85
2023-05-15T07:14:41.980Z,26.94
2023-05-15T07:17:09.071Z,27.08
2023-05-15T07:19:36.554Z,27.29
2023-05-15T07:22:03.779Z,27.43
2023-05-15T07:24:31.925Z,27.18
2023-05-15T07:26:59.380Z,27.31
2023-05-15T07:29:26.345Z,27.49
2023-05-15T07:31:53.466Z,27.81
2023-05-15T07:34:20.509Z,29.30
2023-05-15T07:36:49.019Z,28.65
2023-05-15T07:39:16.112Z,27.29
2023-05-15T07:41:46.570Z,27.10
2023-05-15T07:44:15.005Z,27.10
2023-05-15T07:46:45.016Z,26.94
2023-05-15T07:49:11.844Z,26.82
2023-05-15T07:51:40.163Z,26.31
2023-05-15T07:54:10.558Z,26.67
2023-05-15T07:56:37.419Z,26.58
2023-05-15T07:59:04.275Z,27.00
2023-05-15T08:01:51.678Z,27.18
2023-05-15T08:04:18.558Z,26.87
2023-05-15T08:06:46.752Z,27.12
2023-05-15T08:09:13.429Z,27.80
2023-05-15T08:11:40.183Z,27.22
2023-05-15T08:14:07.160Z,27.69
2023-05-15T08:16:34.721Z,27.71
2023-05-15T08:19:04.395Z,27.89
2023-05-15T08:21:32.029Z,27.76
2023-05-15T08:23:59.210Z,27.65
2023-05-15T08:26:26.215Z,27.36
2023-05-15T08:28:52.951Z,27.04
2023-05-15T08:31:20.781Z,27.28
2023-05-15T08:33:48.793Z,27.93
2023-05-15T08:36:17.969Z,27.89
2023-05-15T08:38:45.014Z,27.87
2023-05-15T08:41:25.904Z,27.75
2023-05-15T08:44:01.040Z,27.83
2023-05-15T08:46:28.207Z,27.82
2023-05-15T08:48:55.099Z,27.99
2023-05-15T08:51:21.902Z,28.17
2023-05-15T08:53:49.138Z,27.78
2023-05-15T08:56:16.061Z,27.40
2023-05-15T08:58:43.859Z,27.40
2023-05-15T09:01:11.078Z,27.12
2023-05-15T09:03:38.073Z,27.10
2023-05-15T09:06:05.221Z,27.48
2023-05-15T09:08:32.078Z,27.32
2023-05-15T09:10:58.893Z,27.62
2023-05-15T09:13:26.114Z,27.59
2023-05-15T09:15:53.059Z,27.41
2023-05-15T09:18:22.651Z,27.38
2023-05-15T09:20:51.011Z,27.00
2023-05-15T09:23:27.269Z,27.01
2023-05-15T09:25:56.259Z,27.00
2023-05-15T09:28:29.541Z,27.34
2023-05-15T09:31:04.005Z,27.45
2023-05-15T09:33:37.728Z,27.30
2023-05-15T09:36:06.235Z,26.92
2023-05-15T09:38:35.322Z,27.32
2023-05-15T09:41:04.467Z,27.44
2023-05-15T09:43:36.356Z,27.87
2023-05-15T09:46:03.381Z,28.02
2023-05-15T09:48:30.490Z,28.35
2023-05-15T09:50:57.542Z,27.96
2023-05-15T09:53:24.765Z,28.08
2023-05-15T09:55:51.874Z,28.20
2023-05-15T09:58:19.244Z,28.37
2023-05-15T10:00:48.174Z,28.29
2023-05-15T10:03:19.791Z,28.26
2023-05-15T10:05:46.850Z,28.10
2023-05-15T10:08:15.168Z,27.84
2023-05-15T10:10:43.261Z,27.99
2023-05-15T10:13:10.773Z,28.06
2023-05-15T10:15:37.716Z,28.08
2023-05-15T10:18:05.089Z,27.71
2023-05-15T10:20:35.226Z,27.81
2023-05-15T10:23:04.098Z,27.75
2023-05-15T10:25:42.531Z,27.81
2023-05-15T10:28:10.707Z,28.48
2023-05-15T10:30:38.048Z,28.68
2023-05-15T10:33:06.130Z,28.45
2023-05-15T10:35:35.662Z,27.86
2023-05-15T10:38:03.949Z,27.72
2023-05-15T10:40:31.893Z,28.14
2023-05-15T10:42:58.990Z,28.12
2023-05-15T10:45:25.897Z,28.06
2023-05-15T10:47:52.679Z,27.99
2023-05-15T10:50:19.918Z,28.06
2023-05-15T10:52:49.742Z,28.44
2023-05-15T10:55:17.022Z,28.46
2023-05-15T10:57:47.048Z,28.19
2023-05-15T11:00:23.292Z,28.18
2023-05-15T11:02:54.039Z,27.92
2023-05-15T11:05:20.884Z,27.77
2023-05-15T11:08:20.971Z,27.36
2023-05-15T11:10:48.485Z,27.77
2023-05-15T11:13:15.801Z,27.57
2023-05-15T11:15:43.728Z,27.27
2023-05-15T11:18:10.773Z,26.99
2023-05-15T11:21:01.325Z,26.74
2023-05-15T11:23:28.591Z,26.67
2023-05-15T11:25:56.554Z,26.74
2023-05-15T11:28:24.346Z,27.17
2023-05-15T11:30:52.295Z,26.67
2023-05-15T11:33:19.958Z,26.40
2023-05-15T11:35:47.209Z,26.24
2023-05-15T11:38:25.711Z,26.31
2023-05-15T11:40:52.905Z,26.34
2023-05-15T11:43:27.087Z,26.42
2023-05-15T11:45:57.282Z,26.80
2023-05-15T11:48:26.644Z,26.79
2023-05-15T11:50:53.471Z,26.78
2023-05-15T11:53:20.548Z,26.43
2023-05-15T11:55:47.443Z,26.38
2023-05-15T11:58:16.287Z,28.45
2023-05-15T12:00:44.795Z,28.72
2023-05-15T12:03:24.174Z,26.82
2023-05-15T12:05:58.865Z,26.95
2023-05-15T12:08:30.640Z,26.86
2023-05-15T12:10:57.689Z,27.17
2023-05-15T12:13:25.019Z,27.68
2023-05-15T12:15:51.822Z,28.00
2023-05-15T12:18:18.768Z,28.13
2023-05-15T12:20:46.444Z,28.03
2023-05-15T12:23:16.790Z,27.87
2023-05-15T12:25:44.439Z,27.64
2023-05-15T12:28:11.200Z,27.68
2023-05-15T12:30:38.207Z,27.29
2023-05-15T12:33:06.408Z,27.05
2023-05-15T12:35:35.170Z,27.11
2023-05-15T12:38:05.908Z,27.24
2023-05-15T12:40:33.410Z,27.65
2023-05-15T12:43:06.994Z,27.34
2023-05-15T12:45:35.746Z,27.15
2023-05-15T12:48:03.293Z,27.05
2023-05-15T12:50:32.387Z,26.89
2023-05-15T12:53:03.513Z,26.79
2023-05-15T12:55:36.157Z,26.60
2023-05-15T12:58:10.612Z,26.31
2023-05-15T13:00:38.926Z,26.12
2023-05-15T13:03:07.973Z,26.26
2023-05-15T13:05:35.630Z,26.34
2023-05-15T13:08:04.328Z,26.29
2023-05-15T13:10:32.186Z,26.44
2023-05-15T13:12:59.410Z,26.39
2023-05-15T13:15:28.122Z,26.48
2023-05-15T13:18:08.526Z,26.41
2023-05-15T13:20:40.253Z,26.39
2023-05-15T13:23:07.392Z,26.53
2023-05-15T13:25:35.483Z,26.40
2023-05-15T13:28:03.705Z,26.11
2023-05-15T13:30:34.248Z,26.36
2023-05-15T13:33:01.500Z,26.13
2023-05-15T13:35:28.752Z,26.05
2023-05-15T13:37:56.269Z,25.86
2023-05-15T13:40:24.138Z,25.70
2023-05-15T13:42:51.379Z,25.83
2023-05-15T13:45:18.291Z,25.80
2023-05-15T13:47:45.196Z,26.29
2023-05-15T13:50:13.256Z,26.15
2023-05-15T13:52:40.663Z,26.14
2023-05-15T13:55:09.303Z,26.27
2023-05-15T13:57:37.450Z,26.32
2023-05-15T14:00:07.184Z,26.45
2023-05-15T14:02:34.780Z,26.48
2023-05-15T14:05:01.718Z,26.51
2023-05-15T14:07:30.489Z,26.27
2023-05-15T14:09:57.523Z,25.99
2023-05-15T14:12:25.938Z,25.98
2023-05-15T14:14:52.972Z,25.89
2023-05-15T14:17:21.859Z,25.87
2023-05-15T14:19:50.651Z,25.92
2023-05-15T14:22:17.492Z,25.79
2023-05-15T14:24:44.253Z,25.67
2023-05-15T14:27:11.048Z,25.60
2023-05-15T14:29:38.768Z,25.55
2023-05-15T14:32:07.013Z,25.61
2023-05-15T14:34:33.717Z,25.78
2023-05-15T14:37:00.528Z,25.93
2023-05-15T14:39:27.262Z,25.93
2023-05-15T14:41:54.174Z,25.89
2023-05-15T14:44:20.873Z,25.60
2023-05-15T14:46:47.633Z,25.54
2023-05-15T14:49:14.534Z,25.98
2023-05-15T14:51:41.649Z,25.76
2023-05-15T14:54:09.196Z,25.79
2023-05-15T14:56:37.232Z,25.54
2023-05-15T14:59:03.945Z,25.45
2023-05-15T15:01:30.983Z,25.19
2023-05-15T15:03:57.929Z,25.19
2023-05-15T15:06:24.944Z,25.22
2023-05-15T15:08:52.310Z,25.26
2023-05-15T15:11:19.024Z,25.23
2023-05-15T15:13:45.945Z,25.18
2023-05-15T15:16:12.998Z,25.12
2023-05-15T15:18:39.768Z,25.29
2023-05-15T15:21:07.089Z,24.98
2023-05-15T15:23:34.169Z,25.06
2023-05-15T15:26:00.973Z,24.98
2023-05-15T15:29:00.271Z,24.61
2023-05-15T15:31:30.001Z,24.48
2023-05-15T15:34:01.859Z,24.35
2023-05-15T15:36:30.876Z,24.42
2023-05-15T15:38:57.669Z,24.38
2023-05-15T15:41:24.532Z,24.35
2023-05-15T15:43:51.330Z,24.35
2023-05-15T15:46:18.764Z,24.97
2023-05-15T15:48:45.602Z,25.78
2023-05-15T15:51:12.516Z,24.72
2023-05-15T15:53:39.360Z,24.22
2023-05-15T15:56:06.967Z,24.15
2023-05-15T15:58:34.455Z,24.54
2023-05-15T16:01:02.087Z,26.40
2023-05-15T16:03:28.972Z,26.86
2023-05-15T16:05:56.622Z,26.87
2023-05-15T16:08:24.869Z,26.94
2023-05-15T16:10:53.301Z,26.98
2023-05-15T16:13:20.099Z,26.25
2023-05-15T16:15:47.345Z,23.88
2023-05-15T16:18:14.372Z,23.63
2023-05-15T16:20:41.219Z,23.63
2023-05-15T16:23:10.948Z,23.63
2023-05-15T16:25:37.734Z,23.35
2023-05-15T16:28:04.596Z,23.61
2023-05-15T16:30:47.244Z,23.34
2023-05-15T16:33:16.900Z,23.54
2023-05-15T16:35:44.072Z,23.39
2023-05-15T16:38:10.837Z,23.08
2023-05-15T16:40:37.675Z,23.01
2023-05-15T16:43:05.397Z,22.83
2023-05-15T16:45:32.275Z,22.85
2023-05-15T16:47:59.063Z,22.90
2023-05-15T16:50:26.159Z,23.56
2023-05-15T16:52:53.067Z,23.20
2023-05-15T16:55:20.258Z,22.78
2023-05-15T16:57:47.524Z,22.65
2023-05-15T17:00:14.780Z,22.35
2023-05-15T17:02:42.508Z,22.19
2023-05-15T17:05:10.033Z,22.10
2023-05-15T17:07:37.615Z,22.00
2023-05-15T17:10:08.266Z,21.94
2023-05-15T17:12:35.766Z,21.88
2023-05-15T17:15:03.295Z,21.77
2023-05-15T17:17:30.643Z,21.59
2023-05-15T17:19:59.301Z,21.55
2023-05-15T17:22:26.808Z,21.75
2023-05-15T17:24:53.948Z,23.04
2023-05-15T17:27:20.877Z,21.68
2023-05-15T17:29:48.585Z,21.45
2023-05-15T17:32:17.390Z,21.37
2023-05-15T17:34:44.900Z,21.32
2023-05-15T17:37:12.233Z,21.33
2023-05-15T17:39:39.008Z,20.90
2023-05-15T17:42:05.789Z,20.75
2023-05-15T17:44:33.380Z,20.91
2023-05-15T17:47:00.209Z,20.61
2023-05-15T17:49:27.414Z,20.56
2023-05-15T17:51:54.187Z,20.46
2023-05-15T17:54:20.965Z,20.51
2023-05-15T17:56:47.924Z,20.49
2023-05-15T17:59:15.007Z,20.47
2023-05-15T18:01:41.899Z,20.31
2023-05-15T18:04:09.173Z,21.35
2023-05-15T18:06:38.599Z,22.21
2023-05-15T18:09:05.473Z,22.36
2023-05-15T18:11:32.681Z,22.48
2023-05-15T18:14:00.405Z,22.46
2023-05-15T18:16:27.422Z,22.42
2023-05-15T18:18:54.660Z,22.51
2023-05-15T18:21:22.045Z,22.57
2023-05-15T18:23:49.012Z,22.58
2023-05-15T18:26:15.871Z,22.71
2023-05-15T18:28:43.158Z,22.05
2023-05-15T18:31:10.645Z,20.77
2023-05-15T18:33:40.079Z,19.97
2023-05-15T18:36:07.610Z,20.24
2023-05-15T18:38:36.564Z,20.33
2023-05-15T18:41:03.361Z,20.24
2023-05-15T18:43:32.453Z,19.71
2023-05-15T18:45:59.331Z,19.26
2023-05-15T18:48:26.112Z,19.05
2023-05-15T18:50:53.023Z,18.93
2023-05-15T18:53:19.833Z,19.60
2023-05-15T18:55:46.667Z,19.02
2023-05-15T18:58:13.558Z,18.97
2023-05-15T19:00:40.338Z,19.38
2023-05-15T19:03:07.885Z,19.00
2023-05-15T19:05:35.182Z,18.71
2023-05-15T19:08:03.679Z,19.64
2023-05-15T19:10:31.826Z,20.49
2023-05-15T19:12:58.727Z,20.69
2023-05-15T19:15:25.761Z,20.78
2023-05-15T19:17:52.781Z,20.80
2023-05-15T19:20:20.174Z,20.90
2023-05-15T19:22:47.217Z,20.90
2023-05-15T19:25:14.676Z,20.93
2023-05-15T19:27:41.714Z,20.95
2023-05-15T19:30:09.347Z,20.90
2023-05-15T19:32:38.234Z,20.91
2023-05-15T19:35:05.449Z,21.05
2023-05-15T19:37:32.249Z,21.25
2023-05-15T19:39:59.248Z,21.26
2023-05-15T19:42:26.080Z,21.33
2023-05-15T19:44:53.037Z,21.34
2023-05-15T19:47:20.312Z,21.40
2023-05-15T19:49:47.886Z,21.42
2023-05-15T19:52:15.756Z,21.54
2023-05-15T19:54:42.891Z,21.57
2023-05-15T19:57:10.070Z,21.62
2023-05-15T19:59:37.887Z,21.68
2023-05-15T20:02:09.140Z,21.74
2023-05-15T20:04:36.912Z,21.77
2023-05-15T20:07:04.079Z,21.73
2023-05-15T20:09:30.930Z,21.76
2023-05-15T20:11:57.854Z,21.78
2023-05-15T20:14:25.690Z,21.76
2023-05-15T20:16:52.640Z,21.75
2023-05-15T20:19:21.472Z,21.65
2023-05-15T20:21:48.417Z,21.48
2023-05-15T20:24:16.978Z,21.54
2023-05-15T20:26:44.507Z,21.53
2023-05-15T20:29:11.368Z,21.53
2023-05-15T20:31:39.804Z,21.56
2023-05-15T20:34:07.708Z,21.68
2023-05-15T20:36:35.354Z,21.67
2023-05-15T20:39:05.210Z,21.76
2023-05-15T20:41:33.180Z,21.87
2023-05-15T20:43:59.930Z,21.87
2023-05-15T20:46:29.718Z,21.96
2023-05-15T20:48:57.124Z,22.11
2023-05-15T20:51:24.005Z,22.02
2023-05-15T20:53:50.779Z,22.04
2023-05-15T20:56:18.660Z,22.06
2023-05-15T20:58:45.444Z,22.17
2023-05-15T21:01:12.764Z,22.14
2023-05-15T21:03:39.620Z,22.07
2023-05-15T21:06:06.600Z,22.04
2023-05-15T21:08:33.435Z,21.98
2023-05-15T21:11:00.437Z,21.94
2023-05-15T21:13:27.526Z,22.01
2023-05-15T21:15:54.570Z,21.92
2023-05-15T21:18:22.443Z,22.02
2023-05-15T21:20:49.314Z,22.09
2023-05-15T21:23:16.405Z,22.25
2023-05-15T21:25:43.479Z,22.33
2023-05-15T21:28:10.660Z,22.39
2023-05-15T21:30:37.471Z,22.41
2023-05-15T21:33:04.409Z,22.45
2023-05-15T21:35:31.677Z,22.49
2023-05-15T21:37:59.036Z,22.45
2023-05-15T21:40:26.016Z,22.37
2023-05-15T21:42:53.241Z,22.44
2023-05-15T21:45:20.107Z,22.52
2023-05-15T21:47:46.993Z,22.46
2023-05-15T21:50:14.923Z,22.40
2023-05-15T21:52:42.053Z,22.28
2023-05-15T21:55:08.987Z,22.25
2023-05-15T21:57:35.668Z,22.26
2023-05-15T22:00:03.873Z,22.27
2023-05-15T22:02:33.106Z,22.36
2023-05-15T22:04:59.950Z,22.35
2023-05-15T22:07:26.744Z,22.38
2023-05-15T22:09:53.550Z,22.31
2023-05-15T22:12:20.884Z,22.16
2023-05-15T22:14:58.303Z,22.17
2023-05-15T22:17:26.548Z,22.23
2023-05-15T22:19:53.392Z,22.14
2023-05-15T22:22:20.293Z,22.21
2023-05-15T22:24:47.444Z,22.24
2023-05-15T22:27:16.071Z,22.21
2023-05-15T22:29:43.295Z,22.42
2023-05-15T22:32:10.118Z,22.56
2023-05-15T22:34:37.418Z,22.35
2023-05-15T22:37:04.354Z,22.33
2023-05-15T22:39:32.645Z,22.05
2023-05-15T22:41:59.453Z,22.11
2023-05-15T22:44:26.996Z,22.12
2023-05-15T22:46:53.670Z,22.02
2023-05-15T22:49:24.911Z,21.92
2023-05-15T22:51:52.945Z,21.95
2023-05-15T22:54:21.259Z,22.09
2023-05-15T22:56:49.697Z,22.22
2023-05-15T22:59:16.421Z,22.25
2023-05-15T23:01:43.836Z,21.99
2023-05-15T23:04:11.252Z,22.00
2023-05-15T23:06:39.774Z,22.15
2023-05-15T23:09:07.908Z,22.36
2023-05-15T23:11:35.025Z,22.33
2023-05-15T23:14:02.502Z,22.39
2023-05-15T23:16:30.235Z,22.58
2023-05-15T23:18:57.250Z,22.68
2023-05-15T23:21:24.076Z,22.64
2023-05-15T23:23:51.050Z,22.80
2023-05-15T23:26:17.881Z,22.71
2023-05-15T23:28:44.731Z,22.58
2023-05-15T23:31:14.572Z,22.50
2023-05-15T23:33:41.584Z,22.44
2023-05-15T23:36:08.500Z,22.35
2023-05-15T23:38:35.240Z,22.58
2023-05-15T23:41:02.216Z,22.59
2023-05-15T23:43:29.344Z,22.56
2023-05-15T23:45:56.395Z,22.57
2023-05-15T23:48:23.253Z,22.57
2023-05-15T23:50:51.679Z,22.77
2023-05-15T23:53:18.649Z,22.78
2023-05-15T23:55:45.776Z,22.81
2023-05-15T23:58:12.757Z,22.93
